createdAt,value
2019-01-31T00:00:30.299Z,25.13
2019-01-31T00:03:09.353Z,32.07
2019-01-31T00:06:07.476Z,21.57
2019-01-31T00:09:04.121Z,27.20
2019-01-31T00:11:58.464Z,30.57
2019-01-31T00:14:50.557Z,23.70
2019-01-31T00:17:38.363Z,28.77
2019-01-31T00:20:17.016Z,31.53
2019-01-31T00:23:04.891Z,30.50
2019-01-31T00:25:43.533Z,30.70
2019-01-31T00:28:19.291Z,33.17
2019-01-31T00:31:10.520Z,29.13
2019-01-31T00:33:58.351Z,28.27
2019-01-31T00:36:28.255Z,27.23
2019-01-31T00:39:14.884Z,32.07
2019-01-31T00:41:47.458Z,31.83
2019-01-31T00:44:37.874Z,30.27
2019-01-31T00:47:29.179Z,31.40
2019-01-31T00:50:01.871Z,33.77
2019-01-31T00:52:34.411Z,32.53
2019-01-31T00:55:06.902Z,32.30
2019-01-31T00:57:36.711Z,31.90
2019-01-31T01:00:06.568Z,29.97
2019-01-31T01:02:39.373Z,28.83
2019-01-31T01:05:25.955Z,27.53
2019-01-31T01:08:05.650Z,28.57
2019-01-31T01:11:01.185Z,29.57
2019-01-31T01:13:33.790Z,29.20
2019-01-31T01:16:06.338Z,30.47
2019-01-31T01:18:45.194Z,28.33
2019-01-31T01:21:20.782Z,27.40
2019-01-31T01:23:56.827Z,28.33
2019-01-31T01:26:29.494Z,25.13
2019-01-31T01:28:59.290Z,27.80
2019-01-31T01:31:32.156Z,28.43
2019-01-31T01:34:07.828Z,28.13
2019-01-31T01:36:42.953Z,27.00
2019-01-31T01:39:19.394Z,27.10
2019-01-31T01:41:44.596Z,25.17
2019-01-31T01:44:17.395Z,27.33
2019-01-31T01:46:49.973Z,25.13
2019-01-31T01:49:25.542Z,22.07
2019-01-31T01:51:55.304Z,25.07
2019-01-31T01:54:34.047Z,25.73
2019-01-31T01:57:21.912Z,26.30
2019-01-31T02:00:08.212Z,23.50
2019-01-31T02:02:37.971Z,24.17
2019-01-31T02:05:27.491Z,25.23
2019-01-31T02:08:03.146Z,21.10
2019-01-31T02:10:42.012Z,22.67
2019-01-31T02:13:29.644Z,22.97
2019-01-31T02:16:15.968Z,21.60
2019-01-31T02:18:51.680Z,23.97
2019-01-31T02:21:30.697Z,22.47
2019-01-31T02:24:15.487Z,23.30
2019-01-31T02:27:06.753Z,19.50
2019-01-31T02:29:42.143Z,19.70
2019-01-31T02:32:31.806Z,28.30
2019-01-31T02:35:35.265Z,27.23
2019-01-31T02:38:07.923Z,28.57
2019-01-31T02:40:49.746Z,26.57
2019-01-31T02:43:40.671Z,25.57
2019-01-31T02:46:13.409Z,24.67
2019-01-31T02:48:55.496Z,24.50
2019-01-31T02:51:34.435Z,26.87
2019-01-31T02:54:12.960Z,26.33
2019-01-31T02:56:42.724Z,26.93
2019-01-31T02:59:14.069Z,25.60
2019-01-31T03:02:02.095Z,25.30
2019-01-31T03:04:31.851Z,27.67
2019-01-31T03:07:04.347Z,25.90
2019-01-31T03:09:54.669Z,23.90
2019-01-31T03:12:18.972Z,23.90
2019-01-31T03:14:48.324Z,22.60
2019-01-31T03:17:21.103Z,20.33
2019-01-31T03:20:09.147Z,22.60
2019-01-31T03:22:41.646Z,23.67
2019-01-31T03:25:32.681Z,23.60
2019-01-31T03:28:05.703Z,25.83
2019-01-31T03:30:44.741Z,24.83
2019-01-31T03:33:23.536Z,23.50
2019-01-31T03:36:08.408Z,27.67
2019-01-31T03:38:40.911Z,34.33
2019-01-31T03:41:10.778Z,31.60
2019-01-31T03:43:52.886Z,32.20
2019-01-31T03:46:43.823Z,29.20
2019-01-31T03:49:13.613Z,28.07
2019-01-31T03:51:46.354Z,27.30
2019-01-31T03:54:34.540Z,26.57
2019-01-31T03:57:19.319Z,32.20
2019-01-31T03:59:48.200Z,39.20
2019-01-31T04:02:29.838Z,39.40
2019-01-31T04:05:02.686Z,43.63
2019-01-31T04:07:28.841Z,45.00
2019-01-31T04:09:54.987Z,42.17
2019-01-31T04:12:22.086Z,40.27
2019-01-31T04:14:48.300Z,39.00
2019-01-31T04:17:14.497Z,42.00
2019-01-31T04:19:40.684Z,39.17
2019-01-31T04:22:06.963Z,36.67
2019-01-31T04:24:33.614Z,40.60
2019-01-31T04:26:59.793Z,37.03
2019-01-31T04:29:25.944Z,36.37
2019-01-31T04:31:52.096Z,37.47
2019-01-31T04:34:18.375Z,38.17
2019-01-31T04:36:44.533Z,34.00
2019-01-31T04:39:10.778Z,35.97
2019-01-31T04:41:36.966Z,33.73
2019-01-31T04:44:03.617Z,33.07
2019-01-31T04:46:29.876Z,39.83
2019-01-31T04:48:56.062Z,40.00
2019-01-31T04:51:22.325Z,39.80
2019-01-31T04:53:48.681Z,40.03
2019-01-31T04:56:14.962Z,40.50
2019-01-31T04:58:41.121Z,37.13
2019-01-31T05:01:07.304Z,38.57
2019-01-31T05:03:33.471Z,39.57
2019-01-31T05:05:59.647Z,42.13
2019-01-31T05:08:25.805Z,44.27
2019-01-31T05:10:51.986Z,43.80
2019-01-31T05:13:18.301Z,42.43
2019-01-31T05:15:44.454Z,46.17
2019-01-31T05:18:10.642Z,40.53
2019-01-31T05:20:36.898Z,39.43
2019-01-31T05:23:03.046Z,44.50
2019-01-31T05:25:29.241Z,42.33
2019-01-31T05:27:55.389Z,42.73
2019-01-31T05:30:21.546Z,46.73
2019-01-31T05:32:47.734Z,44.03
2019-01-31T05:35:13.883Z,42.73
2019-01-31T05:37:40.043Z,43.53
2019-01-31T05:40:09.439Z,43.00
2019-01-31T05:42:35.588Z,39.13
2019-01-31T05:45:01.842Z,41.00
2019-01-31T05:47:28.028Z,40.93
2019-01-31T05:49:54.181Z,41.10
2019-01-31T05:52:20.348Z,39.30
2019-01-31T05:54:46.527Z,46.23
2019-01-31T05:57:12.696Z,46.60
2019-01-31T05:59:38.885Z,48.20
2019-01-31T06:02:05.259Z,44.97
2019-01-31T06:04:31.671Z,49.20
2019-01-31T06:06:57.838Z,48.27
2019-01-31T06:09:24.017Z,41.23
2019-01-31T06:11:50.183Z,51.87
2019-01-31T06:14:16.396Z,42.20
2019-01-31T06:16:42.618Z,43.37
2019-01-31T06:19:08.771Z,45.17
2019-01-31T06:21:34.923Z,51.30
2019-01-31T06:24:01.225Z,51.07
2019-01-31T06:26:27.499Z,52.13
2019-01-31T06:28:53.655Z,50.80
2019-01-31T06:31:19.945Z,46.47
2019-01-31T06:33:46.106Z,46.17
2019-01-31T06:36:12.374Z,49.60
2019-01-31T06:38:38.560Z,45.17
2019-01-31T06:41:04.728Z,41.23
2019-01-31T06:43:30.987Z,44.53
2019-01-31T06:45:57.269Z,42.00
2019-01-31T06:48:23.423Z,41.93
2019-01-31T06:50:49.585Z,42.60
2019-01-31T06:53:15.774Z,44.90
2019-01-31T06:55:41.958Z,41.80
2019-01-31T06:58:08.118Z,42.30
2019-01-31T07:00:34.322Z,37.80
2019-01-31T07:03:00.478Z,42.33
2019-01-31T07:05:26.639Z,40.90
2019-01-31T07:07:52.830Z,42.27
2019-01-31T07:10:21.582Z,54.27
2019-01-31T07:12:47.745Z,59.57
2019-01-31T07:15:14.929Z,47.07
2019-01-31T07:17:41.082Z,45.87
2019-01-31T07:20:15.485Z,38.83
2019-01-31T07:22:41.801Z,39.67
2019-01-31T07:25:11.775Z,42.23
2019-01-31T07:27:37.929Z,38.93
2019-01-31T07:30:10.416Z,31.73
2019-01-31T07:32:36.585Z,36.17
2019-01-31T07:35:05.932Z,41.17
2019-01-31T07:37:32.138Z,35.97
2019-01-31T07:39:58.299Z,33.67
2019-01-31T07:42:24.559Z,42.50
2019-01-31T07:44:50.885Z,41.07
2019-01-31T07:47:17.023Z,31.03
2019-01-31T07:49:43.186Z,35.13
2019-01-31T07:52:09.400Z,31.63
2019-01-31T07:54:35.557Z,25.47
2019-01-31T07:57:01.709Z,27.43
2019-01-31T07:59:27.986Z,25.70
2019-01-31T08:01:54.139Z,24.63
2019-01-31T08:04:20.414Z,24.23
2019-01-31T08:06:46.611Z,26.47
2019-01-31T08:09:12.771Z,23.97
2019-01-31T08:11:38.922Z,24.70
2019-01-31T08:14:05.703Z,20.83
2019-01-31T08:16:31.910Z,24.47
2019-01-31T08:18:58.062Z,28.70
2019-01-31T08:21:24.243Z,22.10
2019-01-31T08:23:50.510Z,27.13
2019-01-31T08:26:16.670Z,23.43
2019-01-31T08:28:42.874Z,26.37
2019-01-31T08:31:09.225Z,21.07
2019-01-31T08:33:35.385Z,22.73
2019-01-31T08:36:01.679Z,21.27
2019-01-31T08:38:27.836Z,22.20
2019-01-31T08:40:54.000Z,23.20
2019-01-31T08:43:20.664Z,21.03
2019-01-31T08:45:47.058Z,27.23
2019-01-31T08:48:13.236Z,25.37
2019-01-31T08:50:39.631Z,24.43
2019-01-31T08:53:05.904Z,23.70
2019-01-31T08:55:32.169Z,24.70
2019-01-31T08:57:58.359Z,21.37
2019-01-31T09:00:30.751Z,22.53
2019-01-31T09:02:57.231Z,24.23
2019-01-31T09:05:23.425Z,23.23
2019-01-31T09:07:49.580Z,22.60
2019-01-31T09:10:28.012Z,25.13
2019-01-31T09:12:54.730Z,21.80
2019-01-31T09:15:22.385Z,21.27
2019-01-31T09:17:49.630Z,20.50
2019-01-31T09:20:28.390Z,17.87
2019-01-31T09:23:04.219Z,19.77
2019-01-31T09:25:54.205Z,20.83
2019-01-31T09:28:35.884Z,20.67
2019-01-31T09:31:27.109Z,23.07
2019-01-31T09:34:03.001Z,21.83
2019-01-31T09:36:55.408Z,23.37
2019-01-31T09:39:46.546Z,21.23
2019-01-31T09:42:26.611Z,20.77
2019-01-31T09:45:18.061Z,20.83
2019-01-31T09:47:59.595Z,20.43
2019-01-31T09:50:52.416Z,21.00
2019-01-31T09:53:37.480Z,23.43
2019-01-31T09:56:13.118Z,19.47
2019-01-31T09:59:01.027Z,21.87
2019-01-31T10:01:55.552Z,17.90
2019-01-31T10:04:31.197Z,18.67
2019-01-31T10:07:03.159Z,16.93
2019-01-31T10:09:41.766Z,17.70
2019-01-31T10:12:20.248Z,18.10
2019-01-31T10:14:58.778Z,18.40
2019-01-31T10:17:31.542Z,19.03
2019-01-31T10:20:22.364Z,19.53
2019-01-31T10:22:58.124Z,17.67
2019-01-31T10:25:40.332Z,18.37
2019-01-31T10:28:40.045Z,16.07
2019-01-31T10:31:28.479Z,17.03
2019-01-31T10:34:10.138Z,17.80
2019-01-31T10:36:39.900Z,18.00
2019-01-31T10:39:18.317Z,16.30
2019-01-31T10:42:23.749Z,16.90
2019-01-31T10:45:08.618Z,17.20
2019-01-31T10:47:53.003Z,18.07
2019-01-31T10:50:45.948Z,16.30
2019-01-31T10:53:18.478Z,18.80
2019-01-31T10:56:11.212Z,13.97
2019-01-31T10:58:43.847Z,16.87
2019-01-31T11:01:28.726Z,17.10
2019-01-31T11:04:10.102Z,16.30
2019-01-31T11:07:00.051Z,17.50
2019-01-31T11:09:45.257Z,18.57
2019-01-31T11:12:17.910Z,17.07
2019-01-31T11:14:47.839Z,17.63
2019-01-31T11:17:20.831Z,16.80
2019-01-31T11:20:02.306Z,16.87
2019-01-31T11:22:41.318Z,16.73
2019-01-31T11:25:26.293Z,14.70
2019-01-31T11:28:08.249Z,18.63
2019-01-31T11:30:56.150Z,16.93
2019-01-31T11:33:35.129Z,24.73
2019-01-31T11:36:07.926Z,51.17
2019-01-31T11:38:40.953Z,28.37
2019-01-31T11:41:27.659Z,26.23
2019-01-31T11:44:15.490Z,38.70
2019-01-31T11:46:45.378Z,27.30
2019-01-31T11:49:30.418Z,25.40
2019-01-31T11:52:00.213Z,26.27
2019-01-31T11:54:35.790Z,22.97
2019-01-31T11:57:22.481Z,19.37
2019-01-31T11:59:48.675Z,17.33
2019-01-31T12:02:15.144Z,19.40
2019-01-31T12:04:41.407Z,19.67
2019-01-31T12:07:07.605Z,24.00
2019-01-31T12:09:33.810Z,19.30
2019-01-31T12:12:00.076Z,17.10
2019-01-31T12:14:26.311Z,14.27
2019-01-31T12:16:52.628Z,16.77
2019-01-31T12:19:19.212Z,15.97
2019-01-31T12:21:45.745Z,14.33
2019-01-31T12:24:16.456Z,15.87
2019-01-31T12:26:40.679Z,17.97
2019-01-31T12:29:06.886Z,16.73
2019-01-31T12:31:33.053Z,14.10
2019-01-31T12:33:59.215Z,14.20
2019-01-31T12:36:25.521Z,18.53
2019-01-31T12:38:54.845Z,19.80
2019-01-31T12:41:20.357Z,20.50
2019-01-31T12:43:46.772Z,19.60
2019-01-31T12:46:13.041Z,20.13
2019-01-31T12:48:39.231Z,26.17
2019-01-31T12:51:05.530Z,24.70
2019-01-31T12:53:31.704Z,23.20
2019-01-31T12:55:58.007Z,23.67
2019-01-31T12:58:33.312Z,20.10
2019-01-31T13:00:52.463Z,19.87
2019-01-31T13:03:18.633Z,20.60
2019-01-31T13:05:44.927Z,25.23
2019-01-31T13:08:11.088Z,22.30
2019-01-31T13:10:37.256Z,21.87
2019-01-31T13:13:04.067Z,24.00
2019-01-31T13:15:30.237Z,17.83
2019-01-31T13:17:56.504Z,22.67
2019-01-31T13:20:23.597Z,22.47
2019-01-31T13:22:52.868Z,20.17
2019-01-31T13:25:20.511Z,24.23
2019-01-31T13:27:46.975Z,24.47
2019-01-31T13:30:18.525Z,17.30
2019-01-31T13:32:44.778Z,16.27
2019-01-31T13:35:12.875Z,21.27
2019-01-31T13:37:39.142Z,18.97
2019-01-31T13:40:23.660Z,32.23
2019-01-31T13:42:50.624Z,21.73
2019-01-31T13:45:20.088Z,33.30
2019-01-31T13:47:46.286Z,22.23
2019-01-31T13:50:14.753Z,22.33
2019-01-31T13:52:41.034Z,18.07
2019-01-31T13:55:10.942Z,16.13
2019-01-31T13:57:37.109Z,15.10
2019-01-31T14:00:06.993Z,16.00
2019-01-31T14:02:33.194Z,14.40
2019-01-31T14:04:59.361Z,16.37
2019-01-31T14:07:27.589Z,13.93
2019-01-31T14:09:53.637Z,16.77
2019-01-31T14:12:19.811Z,15.07
2019-01-31T14:14:45.983Z,17.50
2019-01-31T14:17:12.183Z,17.63
2019-01-31T14:19:38.343Z,19.00
2019-01-31T14:22:04.620Z,20.40
2019-01-31T14:24:30.809Z,17.63
2019-01-31T14:26:57.029Z,19.80
2019-01-31T14:29:23.181Z,20.97
2019-01-31T14:31:49.374Z,21.13
2019-01-31T14:34:15.532Z,21.77
2019-01-31T14:36:41.690Z,25.03
2019-01-31T14:39:08.190Z,22.27
2019-01-31T14:41:34.452Z,24.70
2019-01-31T14:44:00.617Z,17.40
2019-01-31T14:46:26.943Z,27.43
2019-01-31T14:48:53.107Z,21.70
2019-01-31T14:51:19.271Z,24.83
2019-01-31T14:53:45.476Z,27.37
2019-01-31T14:56:11.642Z,24.73
2019-01-31T14:58:37.801Z,24.23
2019-01-31T15:01:04.006Z,25.73
2019-01-31T15:03:30.183Z,21.13
2019-01-31T15:05:56.451Z,22.47
2019-01-31T15:08:23.994Z,19.53
2019-01-31T15:10:50.164Z,18.30
2019-01-31T15:13:16.331Z,15.93
2019-01-31T15:15:42.628Z,21.70
2019-01-31T15:18:08.792Z,20.43
2019-01-31T15:20:38.455Z,21.87
2019-01-31T15:23:05.160Z,20.90
2019-01-31T15:25:31.472Z,24.87
2019-01-31T15:27:57.829Z,20.03
2019-01-31T15:30:27.361Z,26.97
2019-01-31T15:32:53.614Z,21.83
2019-01-31T15:35:19.879Z,21.37
2019-01-31T15:37:46.066Z,20.97
2019-01-31T15:40:15.831Z,16.23
2019-01-31T15:42:42.090Z,18.03
2019-01-31T15:45:08.484Z,17.47
2019-01-31T15:47:34.646Z,18.90
2019-01-31T15:50:00.807Z,23.33
2019-01-31T15:52:26.997Z,22.23
2019-01-31T15:54:53.254Z,18.13
2019-01-31T15:57:19.514Z,20.27
2019-01-31T15:59:45.705Z,18.07
2019-01-31T16:02:11.962Z,26.90
2019-01-31T16:04:38.231Z,22.40
2019-01-31T16:07:04.530Z,24.40
2019-01-31T16:09:30.698Z,21.87
2019-01-31T16:11:59.640Z,34.27
2019-01-31T16:14:25.056Z,28.10
2019-01-31T16:16:51.244Z,27.10
2019-01-31T16:19:17.395Z,22.13
2019-01-31T16:21:44.420Z,23.23
2019-01-31T16:24:10.582Z,21.27
2019-01-31T16:26:36.734Z,25.57
2019-01-31T16:29:03.556Z,24.73
2019-01-31T16:31:29.711Z,30.13
2019-01-31T16:33:55.873Z,22.90
2019-01-31T16:36:22.043Z,23.20
2019-01-31T16:38:48.215Z,24.40
2019-01-31T16:41:17.161Z,26.07
2019-01-31T16:43:44.496Z,23.67
2019-01-31T16:46:10.653Z,25.00
2019-01-31T16:48:36.819Z,21.97
2019-01-31T16:51:03.006Z,24.77
2019-01-31T16:53:29.276Z,22.87
2019-01-31T16:55:55.450Z,24.70
2019-01-31T16:58:21.742Z,29.13
2019-01-31T17:00:47.991Z,25.13
2019-01-31T17:03:14.244Z,19.70
2019-01-31T17:05:42.887Z,29.23
2019-01-31T17:08:09.082Z,23.07
2019-01-31T17:10:35.205Z,24.70
2019-01-31T17:13:01.505Z,25.73
2019-01-31T17:15:27.659Z,27.97
2019-01-31T17:17:53.938Z,27.23
2019-01-31T17:20:26.179Z,27.73
2019-01-31T17:22:52.443Z,31.80
2019-01-31T17:25:19.843Z,27.30
2019-01-31T17:27:46.050Z,26.87
2019-01-31T17:30:23.826Z,24.13
2019-01-31T17:32:50.424Z,28.63
2019-01-31T17:35:16.586Z,19.67
2019-01-31T17:37:42.878Z,14.03
2019-01-31T17:40:12.811Z,18.00
2019-01-31T17:42:39.079Z,19.83
2019-01-31T17:45:08.835Z,19.80
2019-01-31T17:47:35.031Z,21.87
2019-01-31T17:50:01.252Z,19.63
2019-01-31T17:52:27.466Z,20.20
2019-01-31T17:54:55.952Z,23.63
2019-01-31T17:57:21.832Z,17.70
2019-01-31T17:59:48.101Z,9.73
2019-01-31T18:02:14.406Z,15.23
2019-01-31T18:04:40.656Z,19.13
2019-01-31T18:07:06.922Z,19.80
2019-01-31T18:09:33.115Z,17.30
2019-01-31T18:11:59.275Z,18.53
2019-01-31T18:14:25.529Z,18.23
2019-01-31T18:16:51.820Z,14.70
2019-01-31T18:19:17.972Z,16.13
2019-01-31T18:21:44.127Z,15.87
2019-01-31T18:24:10.327Z,16.30
2019-01-31T18:26:36.575Z,18.77
2019-01-31T18:29:02.923Z,21.33
2019-01-31T18:31:29.215Z,10.90
2019-01-31T18:33:55.379Z,18.40
2019-01-31T18:36:21.543Z,21.67
2019-01-31T18:38:47.739Z,14.13
2019-01-31T18:41:13.891Z,20.23
2019-01-31T18:43:40.041Z,19.93
2019-01-31T18:46:06.240Z,20.17
2019-01-31T18:48:32.432Z,19.43
2019-01-31T18:50:58.697Z,19.17
2019-01-31T18:53:24.992Z,16.83
2019-01-31T18:55:51.246Z,19.60
2019-01-31T18:58:17.403Z,18.33
2019-01-31T19:00:45.304Z,18.50
2019-01-31T19:03:11.566Z,22.10
2019-01-31T19:05:37.861Z,15.13
2019-01-31T19:08:07.158Z,17.53
2019-01-31T19:10:42.684Z,21.90
2019-01-31T19:13:00.439Z,21.63
2019-01-31T19:15:26.732Z,31.13
2019-01-31T19:17:52.998Z,28.67
2019-01-31T19:20:24.396Z,23.17
2019-01-31T19:22:51.604Z,18.40
2019-01-31T19:25:17.989Z,28.13
2019-01-31T19:27:44.252Z,27.73
2019-01-31T19:30:28.668Z,30.07
2019-01-31T19:32:55.113Z,20.43
2019-01-31T19:35:21.395Z,16.37
2019-01-31T19:37:47.615Z,28.10
2019-01-31T19:40:22.185Z,28.27
2019-01-31T19:42:48.493Z,31.83
2019-01-31T19:45:21.254Z,33.97
2019-01-31T19:47:47.425Z,35.40
2019-01-31T19:50:13.976Z,31.07
2019-01-31T19:52:40.158Z,32.73
2019-01-31T19:55:06.434Z,20.90
2019-01-31T19:57:32.611Z,19.97
2019-01-31T19:59:58.807Z,25.93
2019-01-31T20:02:25.066Z,37.63
2019-01-31T20:04:51.222Z,27.80
2019-01-31T20:07:17.510Z,25.93
2019-01-31T20:09:45.080Z,19.90
2019-01-31T20:12:11.329Z,23.87
2019-01-31T20:14:37.521Z,28.27
2019-01-31T20:17:08.394Z,18.53
2019-01-31T20:19:33.780Z,27.60
2019-01-31T20:21:59.959Z,25.33
2019-01-31T20:24:26.113Z,30.77
2019-01-31T20:26:52.376Z,22.27
2019-01-31T20:29:18.568Z,31.27
2019-01-31T20:31:44.725Z,31.73
2019-01-31T20:34:10.887Z,30.23
2019-01-31T20:36:37.186Z,39.40
2019-01-31T20:39:06.045Z,30.13
2019-01-31T20:41:32.309Z,35.10
2019-01-31T20:43:58.532Z,36.63
2019-01-31T20:46:24.792Z,34.50
2019-01-31T20:48:51.055Z,34.40
2019-01-31T20:51:17.348Z,25.30
2019-01-31T20:53:43.502Z,23.87
2019-01-31T20:56:09.668Z,25.93
2019-01-31T20:58:35.959Z,32.93
2019-01-31T21:01:02.216Z,22.10
2019-01-31T21:03:28.374Z,37.00
2019-01-31T21:05:54.552Z,19.50
2019-01-31T21:08:20.867Z,31.40
2019-01-31T21:10:47.186Z,26.53
2019-01-31T21:13:13.376Z,36.63
2019-01-31T21:15:39.636Z,16.13
2019-01-31T21:18:06.300Z,37.17
2019-01-31T21:20:32.497Z,26.20
2019-01-31T21:22:58.639Z,24.80
2019-01-31T21:25:24.796Z,28.70
2019-01-31T21:27:52.394Z,19.83
2019-01-31T21:30:33.706Z,29.13
2019-01-31T21:32:59.999Z,43.87
2019-01-31T21:35:27.469Z,47.87
2019-01-31T21:37:53.619Z,40.10
2019-01-31T21:40:21.220Z,45.03
2019-01-31T21:42:47.676Z,38.10
2019-01-31T21:45:18.734Z,26.17
2019-01-31T21:47:44.935Z,41.93
2019-01-31T21:50:14.694Z,33.60
2019-01-31T21:52:40.958Z,22.57
2019-01-31T21:55:08.856Z,46.50
2019-01-31T21:57:35.115Z,47.90
2019-01-31T22:00:01.678Z,47.87
2019-01-31T22:02:27.882Z,70.83
2019-01-31T22:04:54.037Z,49.73
2019-01-31T22:07:20.293Z,58.50
2019-01-31T22:09:46.476Z,60.47
2019-01-31T22:12:12.632Z,50.90
2019-01-31T22:14:38.889Z,57.33
2019-01-31T22:17:14.375Z,55.73
2019-01-31T22:19:33.139Z,55.90
2019-01-31T22:21:59.298Z,62.47
2019-01-31T22:24:25.504Z,63.57
2019-01-31T22:26:51.663Z,76.00
2019-01-31T22:29:17.826Z,74.73
2019-01-31T22:31:44.027Z,69.20
2019-01-31T22:34:10.285Z,62.00
2019-01-31T22:36:36.588Z,60.33
2019-01-31T22:39:06.282Z,68.50
2019-01-31T22:41:32.435Z,72.10
2019-01-31T22:43:58.727Z,43.40
2019-01-31T22:46:24.903Z,56.77
2019-01-31T22:48:51.071Z,64.90
2019-01-31T22:51:17.224Z,64.27
2019-01-31T22:53:43.538Z,71.60
2019-01-31T22:56:09.700Z,66.30
2019-01-31T22:58:35.957Z,41.50
2019-01-31T23:01:07.689Z,56.17
2019-01-31T23:03:34.364Z,67.87
2019-01-31T23:06:00.664Z,68.53
2019-01-31T23:08:26.965Z,62.63
2019-01-31T23:10:53.238Z,56.57
2019-01-31T23:13:19.507Z,51.93
2019-01-31T23:15:45.816Z,59.23
2019-01-31T23:18:11.992Z,54.27
2019-01-31T23:20:38.249Z,48.20
2019-01-31T23:23:04.445Z,45.47
2019-01-31T23:25:39.643Z,43.80
2019-01-31T23:27:58.668Z,66.53
2019-01-31T23:30:25.023Z,62.77
2019-01-31T23:32:51.194Z,72.77
2019-01-31T23:35:17.464Z,83.00
2019-01-31T23:37:43.731Z,55.33
2019-01-31T23:40:11.790Z,77.60
2019-01-31T23:42:37.958Z,127.57
2019-01-31T23:45:07.879Z,86.20
2019-01-31T23:47:34.141Z,65.90
2019-01-31T23:50:00.412Z,50.13
2019-01-31T23:52:26.611Z,61.40
2019-01-31T23:54:52.776Z,65.27
2019-01-31T23:57:19.054Z,59.70
2019-01-31T23:59:45.240Z,47.87
